aviador You're here:

KCKV Decoded Metar

CLARKSVILLE in TN, USA
Report Time2018-05-23 17:52:00
UTC Time2018-05-23 18:43:50
Flight Rules vfr VFR
WindCalm
Visibility9999 m
Phenomena:N/A
Clouds:Few 049 Hf
Expected CloudBase > 4,800 ft AGL from Temp-Dew spread
CeilingNone
Temp29°C (ISA +15)
Dew Point17°C (48% RH)
Heat Index29.4°C
QNH1020 hPa
Density Alt2,297 ft
Elevation541 ft
Report Wrong Elevation
Raw Report
METAR KCKV 231752Z AUTO 00000KT 10SM FEW049 29/17 A3011 RMK AO2 SLP192
T02890167 10294 20194 58002=

Extra information for KCKV:More info

Metar Taf Metar & Taf Last 4 Metars F.Rules Stats Wind Profile Meteogram Temp Stats Airport Information Weather charts Add Link Nearby VenuesMetar ALERT Operation Metar Decoded Social comments

AIRNAV info for KCKV